Time;durP1;ratioP1;P1;durP2;ratioP2;P2;SDS_P1;SDS_P2;PMS_P1;PMS_P2;Temp;Humidity;BMP_temperature;BMP_pressure;BME280_temperature;BME280_humidity;BME280_pressure;Samples;Min_cycle;Max_cycle;Signal;HPM_P1;HPM_P2
2023/01/13 00:00:13;;;;;;;0.55;0.20;;;8.80;99.90;;;;;;5080945;28;21045;-70
2023/01/13 00:02:40;;;;;;;0.10;0.10;;;8.80;99.90;;;;;;5088035;28;20522;-71
2023/01/13 00:05:08;;;;;;;0.10;0.10;;;8.80;99.90;;;;;;5099778;28;20768;-71
2023/01/13 00:07:35;;;;;;;0.10;0.10;;;8.80;99.90;;;;;;5078788;28;20434;-71
2023/01/13 00:10:02;;;;;;;0.20;0.20;;;8.80;99.90;;;;;;5092288;28;20429;-72
2023/01/13 00:12:31;;;;;;;0.10;0.10;;;8.80;99.90;;;;;;5090803;28;20458;-71
2023/01/13 00:14:58;;;;;;;1.50;0.28;;;8.80;99.90;;;;;;5089753;28;20420;-70
2023/01/13 00:17:25;;;;;;;0.17;0.17;;;8.80;99.90;;;;;;5076435;28;20471;-71
2023/01/13 00:19:52;;;;;;;0.10;0.10;;;8.80;99.90;;;;;;5095193;28;20475;-70
2023/01/13 00:22:18;;;;;;;0.20;0.20;;;8.80;99.90;;;;;;5088396;28;20426;-72
2023/01/13 00:24:45;;;;;;;0.10;0.10;;;8.80;99.90;;;;;;5094367;28;20432;-70
2023/01/13 00:27:12;;;;;;;0.20;0.20;;;8.90;99.90;;;;;;5084481;28;20496;-70
2023/01/13 00:29:38;;;;;;;0.20;0.20;;;8.90;99.90;;;;;;5104312;28;20436;-71
2023/01/13 00:32:05;;;;;;;0.10;0.10;;;8.90;99.90;;;;;;5079921;28;20431;-71
2023/01/13 00:34:34;;;;;;;0.10;0.10;;;9.00;99.90;;;;;;5095091;28;20426;-70
2023/01/13 00:37:01;;;;;;;0.15;0.15;;;9.00;99.90;;;;;;5083032;28;20417;-71
2023/01/13 00:39:30;;;;;;;0.20;0.20;;;9.00;99.90;;;;;;5084174;28;20427;-70
2023/01/13 00:44:42;;;;;;;0.10;0.10;;;9.00;99.90;;;;;;5108805;28;20419;-71
2023/01/13 00:47:08;;;;;;;0.10;0.10;;;9.00;99.90;;;;;;5089400;28;20430;-70
2023/01/13 00:49:35;;;;;;;0.20;0.20;;;9.10;99.90;;;;;;5100295;28;20424;-79
2023/01/13 00:52:02;;;;;;;0.20;0.20;;;9.10;99.90;;;;;;5089488;28;20903;-79
2023/01/13 00:54:31;;;;;;;0.50;0.20;;;9.10;99.90;;;;;;5098628;28;20428;-79
2023/01/13 00:56:58;;;;;;;0.10;0.10;;;9.10;99.90;;;;;;5093731;28;20495;-79
2023/01/13 00:59:25;;;;;;;0.10;0.10;;;9.10;99.90;;;;;;5083914;28;20817;-78
2023/01/13 01:01:51;;;;;;;0.30;0.30;;;9.00;99.90;;;;;;5080364;28;20430;-79
2023/01/13 01:04:18;;;;;;;0.30;0.30;;;9.00;99.90;;;;;;5086298;28;20439;-79
2023/01/13 01:06:45;;;;;;;0.10;0.10;;;9.00;99.90;;;;;;5096345;28;20504;-79
2023/01/13 01:09:15;;;;;;;0.10;0.10;;;9.10;99.90;;;;;;5077661;28;20450;-79
2023/01/13 01:11:45;;;;;;;0.15;0.15;;;9.10;99.90;;;;;;5083141;28;20431;-79
2023/01/13 01:14:12;;;;;;;0.20;0.20;;;9.10;99.90;;;;;;5089213;28;20426;-79
2023/01/13 01:16:40;;;;;;;0.15;0.15;;;9.00;99.90;;;;;;5080051;28;20433;-79
2023/01/13 01:19:07;;;;;;;0.10;0.10;;;9.00;99.90;;;;;;5088174;28;20915;-79
2023/01/13 01:21:34;;;;;;;0.30;0.10;;;9.10;99.90;;;;;;5075308;28;21172;-79
2023/01/13 01:24:02;;;;;;;0.20;0.20;;;9.10;99.90;;;;;;5084351;28;20433;-79
2023/01/13 01:26:30;;;;;;;0.10;0.10;;;9.10;99.90;;;;;;5090962;28;20457;-79
2023/01/13 01:28:57;;;;;;;0.60;0.60;;;9.10;99.90;;;;;;5074258;28;20431;-78
2023/01/13 01:31:32;;;;;;;0.05;0.05;;;9.10;99.90;;;;;;5093651;28;20439;-78
2023/01/13 01:34:00;;;;;;;0.10;0.10;;;9.10;99.90;;;;;;5099573;28;20435;-79
2023/01/13 01:36:28;;;;;;;0.10;0.10;;;9.10;99.90;;;;;;5098386;27;20888;-79
2023/01/13 01:38:57;;;;;;;0.10;0.10;;;9.10;99.90;;;;;;5075418;28;20974;-80
2023/01/13 01:41:28;;;;;;;0.10;0.10;;;9.20;99.90;;;;;;5088126;28;20432;-80
2023/01/13 01:44:01;;;;;;;0.20;0.20;;;9.20;99.90;;;;;;5082716;28;20436;-81
2023/01/13 01:46:41;;;;;;;0.20;0.20;;;9.20;99.90;;;;;;5102415;28;20485;-80
2023/01/13 01:49:21;;;;;;;0.10;0.10;;;9.20;99.90;;;;;;5104598;28;20473;-79
2023/01/13 01:52:14;;;;;;;0.30;0.20;;;9.20;99.90;;;;;;5085863;28;20924;-79
2023/01/13 01:54:49;;;;;;;0.20;0.20;;;9.20;99.90;;;;;;5091752;28;20918;-79
2023/01/13 01:57:43;;;;;;;2.90;0.20;;;9.20;99.90;;;;;;5104226;28;20458;-79
2023/01/13 02:00:11;;;;;;;0.20;0.20;;;9.20;99.90;;;;;;5098070;28;20510;-79
2023/01/13 02:02:39;;;;;;;0.10;0.10;;;9.20;99.90;;;;;;5082039;28;20530;-79
2023/01/13 02:05:07;;;;;;;0.30;0.15;;;9.20;99.90;;;;;;5097322;28;20489;-77
2023/01/13 02:07:35;;;;;;;0.20;0.20;;;9.20;99.90;;;;;;5075789;28;20452;-77
2023/01/13 02:10:07;;;;;;;0.13;0.13;;;9.30;99.90;;;;;;5095617;28;20932;-77
2023/01/13 02:12:35;;;;;;;0.20;0.20;;;9.30;99.90;;;;;;5080295;28;20461;-77
2023/01/13 02:15:09;;;;;;;0.20;0.20;;;9.30;99.90;;;;;;5099737;28;20426;-77
2023/01/13 02:17:56;;;;;;;0.10;0.10;;;9.30;99.90;;;;;;5101754;28;20425;-78
2023/01/13 02:20:29;;;;;;;0.08;0.08;;;9.30;99.90;;;;;;5090986;28;20430;-76
2023/01/13 02:26:38;;;;;;;0.10;0.10;;;9.20;99.90;;;;;;5094353;28;20430;-76
2023/01/13 02:32:49;;;;;;;0.20;0.20;;;9.30;99.90;;;;;;5089249;28;20473;-75
2023/01/13 02:35:16;;;;;;;0.20;0.20;;;9.30;99.90;;;;;;5076484;28;20424;-76
2023/01/13 02:37:43;;;;;;;0.20;0.20;;;9.40;99.90;;;;;;5087590;28;20432;-78
2023/01/13 02:40:24;;;;;;;0.10;0.10;;;9.30;99.90;;;;;;5088748;28;20796;-76
2023/01/13 02:46:26;;;;;;;0.10;0.10;;;9.40;99.90;;;;;;5083464;28;20445;-76
2023/01/13 02:48:56;;;;;;;0.20;0.20;;;9.50;99.90;;;;;;5083715;28;20847;-75
2023/01/13 02:51:26;;;;;;;0.10;0.10;;;9.60;99.90;;;;;;5072683;28;20428;-77
2023/01/13 02:54:06;;;;;;;0.30;0.30;;;9.60;99.90;;;;;;5078058;28;20431;-77
2023/01/13 02:56:38;;;;;;;0.20;0.20;;;9.60;99.90;;;;;;5073100;28;20940;-78
2023/01/13 02:59:09;;;;;;;0.10;0.10;;;9.60;99.90;;;;;;5099632;28;20420;-77
2023/01/13 03:01:38;;;;;;;0.60;0.25;;;9.60;99.90;;;;;;5083835;28;20443;-77
2023/01/13 03:04:13;;;;;;;0.15;0.15;;;9.60;99.90;;;;;;5073601;28;20423;-78
2023/01/13 03:07:03;;;;;;;0.30;0.10;;;9.60;99.90;;;;;;5080947;28;20436;-77
2023/01/13 03:09:40;;;;;;;0.30;0.30;;;9.50;99.90;;;;;;5072067;28;20465;-77
2023/01/13 03:12:20;;;;;;;0.20;0.20;;;9.60;99.90;;;;;;5100022;28;20428;-77
2023/01/13 03:15:23;;;;;;;0.20;0.20;;;9.50;99.90;;;;;;5089535;28;20463;-77
2023/01/13 03:18:24;;;;;;;0.20;0.20;;;9.50;99.90;;;;;;5096167;28;20433;-78
2023/01/13 03:21:12;;;;;;;0.30;0.30;;;9.50;99.90;;;;;;5070803;28;20830;-77
2023/01/13 03:24:10;;;;;;;0.20;0.20;;;9.50;99.90;;;;;;5095232;28;20433;-78
2023/01/13 03:26:44;;;;;;;0.10;0.10;;;9.50;99.90;;;;;;5088548;28;21001;-77
2023/01/13 03:29:17;;;;;;;0.30;0.30;;;9.50;99.90;;;;;;5077288;28;20437;-77
2023/01/13 03:31:52;;;;;;;0.10;0.10;;;9.50;99.90;;;;;;5086622;28;20429;-77
2023/01/13 03:34:29;;;;;;;0.17;0.17;;;9.50;99.90;;;;;;5078388;28;20432;-77
2023/01/13 03:37:01;;;;;;;0.20;0.20;;;9.50;99.90;;;;;;5081866;28;21135;-78
2023/01/13 03:39:33;;;;;;;0.10;0.10;;;9.50;99.90;;;;;;5074524;28;20420;-77
2023/01/13 03:42:12;;;;;;;0.10;0.10;;;9.50;99.90;;;;;;5078920;28;20517;-77
2023/01/13 03:44:53;;;;;;;0.10;0.10;;;9.60;99.90;;;;;;5092382;28;20435;-77
2023/01/13 03:47:41;;;;;;;0.10;0.10;;;9.60;99.90;;;;;;5097747;28;20978;-78
2023/01/13 03:50:22;;;;;;;0.10;0.10;;;9.50;99.90;;;;;;5080746;28;20437;-78
2023/01/13 03:52:54;;;;;;;0.20;0.20;;;9.60;99.90;;;;;;5090004;28;20490;-78
2023/01/13 03:55:27;;;;;;;0.13;0.13;;;9.60;99.90;;;;;;5099263;28;20427;-78
2023/01/13 03:58:21;;;;;;;0.10;0.10;;;9.60;99.90;;;;;;5091270;28;20414;-78
2023/01/13 04:00:57;;;;;;;0.40;0.20;;;9.60;99.90;;;;;;5077207;28;20550;-78
2023/01/13 04:03:39;;;;;;;0.10;0.10;;;9.60;99.90;;;;;;5107204;28;20518;-79
2023/01/13 04:06:15;;;;;;;0.22;0.22;;;9.60;99.90;;;;;;5088647;28;20885;-78
2023/01/13 04:08:51;;;;;;;0.10;0.10;;;9.60;99.90;;;;;;5086293;28;20480;-78
2023/01/13 04:11:28;;;;;;;0.10;0.10;;;9.60;99.90;;;;;;5083030;28;20427;-78
2023/01/13 04:13:57;;;;;;;0.10;0.10;;;9.60;99.90;;;;;;5092305;28;20427;-78
2023/01/13 04:16:24;;;;;;;0.20;0.20;;;9.60;99.90;;;;;;5099579;28;20922;-78
2023/01/13 04:18:50;;;;;;;0.10;0.10;;;9.60;99.90;;;;;;5078528;28;20471;-77
2023/01/13 04:21:17;;;;;;;0.10;0.10;;;9.60;99.90;;;;;;5096003;28;20428;-78
2023/01/13 04:23:50;;;;;;;0.10;0.10;;;9.70;99.90;;;;;;5094016;28;20432;-78
2023/01/13 04:26:18;;;;;;;0.10;0.10;;;9.60;99.90;;;;;;5080444;28;20440;-79
2023/01/13 04:28:45;;;;;;;0.10;0.10;;;9.60;99.90;;;;;;5084809;28;20432;-78
2023/01/13 04:31:12;;;;;;;0.20;0.20;;;9.60;99.90;;;;;;5093713;28;20422;-77
2023/01/13 04:33:40;;;;;;;0.10;0.10;;;9.70;99.90;;;;;;5091233;28;20431;-78
2023/01/13 04:36:06;;;;;;;1.40;0.20;;;9.60;99.90;;;;;;5089059;28;20426;-78
2023/01/13 04:38:33;;;;;;;0.20;0.20;;;9.60;99.90;;;;;;5087372;28;20513;-78
2023/01/13 04:41:00;;;;;;;0.10;0.10;;;9.60;99.90;;;;;;5085591;28;20798;-78
2023/01/13 04:43:27;;;;;;;0.20;0.20;;;9.70;99.90;;;;;;5081274;28;20440;-78
2023/01/13 04:45:53;;;;;;;0.10;0.10;;;9.70;99.90;;;;;;5087275;28;20429;-77
2023/01/13 04:48:20;;;;;;;0.10;0.10;;;9.60;99.90;;;;;;5090902;28;20425;-78
2023/01/13 04:50:47;;;;;;;0.10;0.10;;;9.60;99.90;;;;;;5091100;28;20479;-78
2023/01/13 04:53:14;;;;;;;0.20;0.20;;;9.60;99.90;;;;;;5088346;28;20461;-76
2023/01/13 04:55:43;;;;;;;0.20;0.20;;;9.60;99.90;;;;;;5091172;28;20449;-78
2023/01/13 04:58:10;;;;;;;0.10;0.10;;;9.60;99.90;;;;;;5088835;28;20497;-78
2023/01/13 05:00:37;;;;;;;0.20;0.20;;;9.60;99.90;;;;;;5089058;28;20459;-77
2023/01/13 05:03:04;;;;;;;0.20;0.20;;;9.60;99.90;;;;;;5086761;28;21011;-77
2023/01/13 05:05:31;;;;;;;0.20;0.20;;;9.60;99.90;;;;;;5090598;28;20465;-79
2023/01/13 05:07:59;;;;;;;0.10;0.10;;;9.60;99.90;;;;;;5109543;28;20596;-77
2023/01/13 05:10:26;;;;;;;0.25;0.25;;;9.60;99.90;;;;;;5109400;28;20820;-77
2023/01/13 05:18:28;;;;;;;0.10;0.10;;;9.40;99.90;;;;;;5087781;28;20457;-77
2023/01/13 05:20:55;;;;;;;0.15;0.15;;;9.30;99.90;;;;;;5082341;28;20430;-77
2023/01/13 05:26:07;;;;;;;1.80;0.20;;;9.30;99.90;;;;;;5079617;28;20431;-73
2023/01/13 05:28:34;;;;;;;0.10;0.10;;;9.20;99.90;;;;;;5073892;28;20787;-73
2023/01/13 05:31:01;;;;;;;0.10;0.10;;;9.10;99.90;;;;;;5092407;28;20448;-73
2023/01/13 05:33:28;;;;;;;0.10;0.10;;;9.00;99.90;;;;;;5074320;28;20428;-73
2023/01/13 05:35:55;;;;;;;0.20;0.20;;;8.80;99.90;;;;;;5083603;28;20430;-73
2023/01/13 05:38:21;;;;;;;0.17;0.17;;;8.80;99.90;;;;;;5072383;28;20430;-73
2023/01/13 05:43:33;;;;;;;0.00;0.00;;;8.60;1.00;;;;;;5073174;28;20444;-75
2023/01/13 05:46:08;;;;;;;0.10;0.10;;;8.60;1.00;;;;;;5088639;28;20962;-76
2023/01/13 05:48:42;;;;;;;0.10;0.10;;;8.50;1.00;;;;;;5094741;28;20455;-77
2023/01/13 05:51:11;;;;;;;0.10;0.10;;;8.50;1.00;;;;;;5086678;28;20431;-75
2023/01/13 05:53:39;;;;;;;0.10;0.10;;;8.40;1.00;;;;;;5085224;28;20456;-74
2023/01/13 05:56:07;;;;;;;0.00;0.00;;;8.30;99.90;;;;;;5086870;28;20422;-75
2023/01/13 05:58:35;;;;;;;0.03;0.03;;;8.20;99.90;;;;;;5078709;28;20465;-75
2023/01/13 06:01:05;;;;;;;0.10;0.10;;;8.10;99.90;;;;;;5097011;28;20426;-74
2023/01/13 06:03:32;;;;;;;0.08;0.08;;;8.10;99.90;;;;;;5074239;28;20442;-74
2023/01/13 06:06:00;;;;;;;0.00;0.00;;;8.10;1.00;;;;;;5078390;28;20498;-74
2023/01/13 06:08:28;;;;;;;0.20;0.20;;;8.00;1.00;;;;;;5076404;28;20477;-73
2023/01/13 06:10:57;;;;;;;0.00;0.00;;;8.10;99.90;;;;;;5075736;28;20454;-74
2023/01/13 06:13:24;;;;;;;0.20;0.10;;;8.10;99.90;;;;;;5072594;28;20515;-74
2023/01/13 06:15:58;;;;;;;0.10;0.10;;;8.10;99.90;;;;;;5083223;28;20544;-75
2023/01/13 06:18:25;;;;;;;0.10;0.10;;;8.10;99.90;;;;;;5078149;28;20973;-74
2023/01/13 06:20:52;;;;;;;0.00;0.00;;;8.10;99.90;;;;;;5100000;28;21206;-74
2023/01/13 06:23:19;;;;;;;0.00;0.00;;;8.00;1.00;;;;;;5089757;28;20475;-74
2023/01/13 06:25:51;;;;;;;0.00;0.00;;;7.90;99.90;;;;;;5096684;28;20425;-74
2023/01/13 06:28:17;;;;;;;0.07;0.07;;;7.80;99.90;;;;;;5071647;28;20423;-74
2023/01/13 06:30:49;;;;;;;0.20;0.20;;;7.60;1.00;;;;;;5081869;28;20723;-73
2023/01/13 06:33:23;;;;;;;0.20;0.20;;;7.40;99.90;;;;;;5079840;28;20476;-72
2023/01/13 06:35:55;;;;;;;0.10;0.10;;;7.30;99.90;;;;;;5092411;28;20420;-72
2023/01/13 06:38:24;;;;;;;0.10;0.10;;;7.20;99.90;;;;;;5085298;28;20425;-72
2023/01/13 06:40:51;;;;;;;0.00;0.00;;;7.10;99.90;;;;;;5085770;28;20428;-75
2023/01/13 06:43:18;;;;;;;0.00;0.00;;;7.10;1.00;;;;;;5080859;28;21156;-73
2023/01/13 06:46:11;;;;;;;0.10;0.10;;;7.10;91.80;;;;;;5088838;28;20921;-74
2023/01/13 06:48:37;;;;;;;0.20;0.10;;;7.10;99.90;;;;;;5100688;28;20430;-74
2023/01/13 06:51:04;;;;;;;0.00;0.00;;;7.10;99.90;;;;;;5070031;28;20433;-74
2023/01/13 06:53:31;;;;;;;0.10;0.10;;;7.10;99.90;;;;;;5067406;28;20428;-74
2023/01/13 06:55:58;;;;;;;0.10;0.10;;;7.10;99.90;;;;;;5078036;28;20419;-74
2023/01/13 06:58:25;;;;;;;0.20;0.10;;;7.00;99.90;;;;;;5077885;28;20426;-74
2023/01/13 07:00:52;;;;;;;0.17;0.17;;;7.00;99.90;;;;;;5083687;28;20946;-74
2023/01/13 07:03:19;;;;;;;0.10;0.10;;;7.00;99.90;;;;;;5073650;28;20565;-74
2023/01/13 07:05:54;;;;;;;0.20;0.20;;;6.90;99.90;;;;;;5089350;28;20921;-73
2023/01/13 07:08:22;;;;;;;0.10;0.10;;;6.90;99.90;;;;;;5093169;28;20427;-74
2023/01/13 07:10:50;;;;;;;0.20;0.20;;;6.80;99.90;;;;;;5092311;28;20424;-74
2023/01/13 07:16:04;;;;;;;0.03;0.03;;;6.70;99.90;;;;;;5087367;28;20464;-74
2023/01/13 07:18:33;;;;;;;0.10;0.10;;;6.70;99.90;;;;;;5095061;28;20900;-74
2023/01/13 07:21:03;;;;;;;0.20;0.20;;;6.70;99.90;;;;;;5079249;28;20432;-74
2023/01/13 07:23:33;;;;;;;0.20;0.20;;;6.70;99.90;;;;;;5074376;28;20433;-73
2023/01/13 07:26:00;;;;;;;3.20;0.20;;;6.70;99.90;;;;;;5077200;28;20431;-75
2023/01/13 07:28:28;;;;;;;0.10;0.10;;;6.60;99.90;;;;;;5073173;28;20801;-73
2023/01/13 07:30:56;;;;;;;0.10;0.10;;;6.60;99.90;;;;;;5091217;28;20435;-73
2023/01/13 07:33:23;;;;;;;0.10;0.10;;;6.60;99.90;;;;;;5079450;28;20433;-73
2023/01/13 07:36:16;;;;;;;0.03;0.03;;;6.50;99.90;;;;;;5078376;28;20432;-74
2023/01/13 07:38:44;;;;;;;0.30;0.30;;;6.40;99.90;;;;;;5071136;28;21144;-73
2023/01/13 07:43:59;;;;;;;0.10;0.10;;;6.20;99.90;;;;;;5074491;28;20431;-73
2023/01/13 07:46:26;;;;;;;0.10;0.10;;;6.10;99.90;;;;;;5076888;28;20433;-73
2023/01/13 07:48:52;;;;;;;0.08;0.08;;;6.10;99.90;;;;;;5088840;28;20477;-73
2023/01/13 07:51:19;;;;;;;0.10;0.10;;;6.10;1.00;;;;;;5084204;28;20808;-74
2023/01/13 07:53:46;;;;;;;0.20;0.20;;;6.20;1.00;;;;;;5071921;28;20430;-74
2023/01/13 07:56:13;;;;;;;0.10;0.10;;;6.30;1.00;;;;;;5089676;28;20949;-73
2023/01/13 07:58:40;;;;;;;0.30;0.20;;;6.30;1.00;;;;;;5084518;28;20435;-74
2023/01/13 08:01:11;;;;;;;0.10;0.10;;;6.30;1.00;;;;;;5093921;28;20588;-73
2023/01/13 08:03:39;;;;;;;0.10;0.10;;;6.40;1.00;;;;;;5085642;28;20429;-74
2023/01/13 08:06:06;;;;;;;2.20;0.13;;;6.40;1.00;;;;;;5089507;28;20465;-73
2023/01/13 08:08:33;;;;;;;0.10;0.10;;;6.40;1.00;;;;;;5083470;28;20474;-73
2023/01/13 08:11:01;;;;;;;0.10;0.10;;;6.50;1.00;;;;;;5075872;28;20451;-73
2023/01/13 08:13:28;;;;;;;0.17;0.17;;;6.60;1.00;;;;;;5075952;28;20562;-73
2023/01/13 08:16:02;;;;;;;0.10;0.10;;;6.60;99.90;;;;;;5071993;28;20449;-74
2023/01/13 08:18:31;;;;;;;0.10;0.10;;;6.70;99.90;;;;;;5080382;28;20929;-71
2023/01/13 08:21:02;;;;;;;0.30;0.20;;;6.80;99.90;;;;;;5095268;28;20435;-73
2023/01/13 08:23:29;;;;;;;0.13;0.13;;;6.90;99.90;;;;;;5075603;28;20437;-70
2023/01/13 08:26:03;;;;;;;0.10;0.10;;;7.00;99.90;;;;;;5080097;28;20460;-73
2023/01/13 08:28:31;;;;;;;0.10;0.10;;;7.10;99.90;;;;;;5080120;28;20824;-73
2023/01/13 08:31:02;;;;;;;0.20;0.20;;;7.20;99.90;;;;;;5092634;28;21151;-72
2023/01/13 08:33:32;;;;;;;1.30;0.40;;;7.40;99.90;;;;;;5072929;28;20922;-74
2023/01/13 08:36:03;;;;;;;0.20;0.20;;;7.50;99.90;;;;;;5079583;28;20435;-74
2023/01/13 08:38:30;;;;;;;0.20;0.20;;;7.60;99.90;;;;;;5072766;28;20588;-72
2023/01/13 08:40:57;;;;;;;0.20;0.20;;;7.60;99.90;;;;;;5076472;28;20474;-73
2023/01/13 08:43:24;;;;;;;0.10;0.10;;;7.70;99.90;;;;;;5080442;28;20427;-73
2023/01/13 08:46:00;;;;;;;0.17;0.17;;;7.70;99.90;;;;;;5078190;28;20992;-73
2023/01/13 08:48:27;;;;;;;0.40;0.40;;;7.70;99.90;;;;;;5075070;28;20784;-73
2023/01/13 08:51:08;;;;;;;0.15;0.15;;;7.70;99.90;;;;;;5078418;28;20423;-73
2023/01/13 08:53:35;;;;;;;0.20;0.20;;;7.80;99.90;;;;;;5097634;28;20513;-72
2023/01/13 08:56:11;;;;;;;0.10;0.10;;;7.80;99.90;;;;;;5084990;28;20883;-72
2023/01/13 08:58:39;;;;;;;0.35;0.35;;;7.90;99.90;;;;;;5098167;28;20446;-74
2023/01/13 09:01:07;;;;;;;0.20;0.20;;;7.90;99.90;;;;;;5092837;28;20420;-74
2023/01/13 09:03:34;;;;;;;0.20;0.20;;;7.90;99.90;;;;;;5080454;28;20487;-74
2023/01/13 09:06:01;;;;;;;0.10;0.10;;;8.10;99.90;;;;;;5094796;28;20933;-73
2023/01/13 09:08:27;;;;;;;0.30;0.20;;;8.40;99.90;;;;;;5083890;28;20514;-73
2023/01/13 09:10:57;;;;;;;0.27;0.27;;;8.40;99.90;;;;;;5085108;28;20438;-75
2023/01/13 09:13:24;;;;;;;0.20;0.20;;;8.40;99.90;;;;;;5088151;28;20429;-76
2023/01/13 09:15:55;;;;;;;0.30;0.20;;;8.40;99.90;;;;;;5081033;28;20422;-74
2023/01/13 09:18:22;;;;;;;0.10;0.10;;;8.40;99.90;;;;;;5090173;28;20424;-74
2023/01/13 09:20:48;;;;;;;0.20;0.20;;;8.40;99.90;;;;;;5098811;28;20499;-74
2023/01/13 09:23:15;;;;;;;0.20;0.20;;;8.80;99.90;;;;;;5103999;28;20429;-73
2023/01/13 09:25:45;;;;;;;0.10;0.10;;;9.10;99.90;;;;;;5077393;28;20986;-72
2023/01/13 09:28:12;;;;;;;0.20;0.20;;;9.20;99.90;;;;;;5104630;28;20424;-72
2023/01/13 09:30:39;;;;;;;0.20;0.20;;;9.20;99.90;;;;;;5085720;28;20905;-72
2023/01/13 09:35:57;;;;;;;0.30;0.30;;;8.80;99.90;;;;;;5084049;28;20510;-72
2023/01/13 09:38:24;;;;;;;0.30;0.30;;;8.70;99.90;;;;;;5088332;28;20534;-72
2023/01/13 09:40:51;;;;;;;0.70;0.22;;;8.70;99.90;;;;;;5097381;28;20419;-72
2023/01/13 09:49:22;;;;;;;0.20;0.20;;;8.90;99.90;;;;;;5072089;28;20439;-75
2023/01/13 09:52:20;;;;;;;2.50;0.50;;;8.80;99.90;;;;;;5086260;28;20420;-76
2023/01/13 09:55:10;;;;;;;0.20;0.20;;;8.70;99.90;;;;;;5023590;28;20524;-73
2023/01/13 09:57:38;;;;;;;0.20;0.20;;;9.30;99.90;;;;;;5047760;28;20457;-74
2023/01/13 10:00:22;;;;;;;0.50;0.50;;;10.10;99.90;;;;;;5049944;28;20432;-74
2023/01/13 10:03:21;;;;;;;0.30;0.30;;;10.90;99.90;;;;;;5064510;28;21025;-74
2023/01/13 10:05:55;;;;;;;0.20;0.20;;;11.50;99.90;;;;;;5040362;28;20437;-74
2023/01/13 10:08:25;;;;;;;1.20;0.52;;;11.80;99.90;;;;;;5047162;28;20993;-74
2023/01/13 10:10:55;;;;;;;1.90;0.30;;;12.10;99.90;;;;;;5044546;28;20440;-73
2023/01/13 10:13:30;;;;;;;0.40;0.25;;;12.20;99.90;;;;;;5039234;28;20425;-74
2023/01/13 10:16:25;;;;;;;0.50;0.30;;;12.30;99.90;;;;;;5043523;28;20464;-73
2023/01/13 10:19:07;;;;;;;0.25;0.25;;;12.30;99.90;;;;;;5052615;28;20425;-73
2023/01/13 10:21:52;;;;;;;0.30;0.30;;;12.40;99.90;;;;;;5035655;28;20421;-73
2023/01/13 10:24:48;;;;;;;0.30;0.30;;;12.30;99.90;;;;;;5043353;28;20471;-73
2023/01/13 10:27:35;;;;;;;0.20;0.20;;;12.70;99.90;;;;;;5033753;28;20438;-74
2023/01/13 10:30:18;;;;;;;0.30;0.30;;;12.90;99.90;;;;;;5045375;28;20437;-73
2023/01/13 10:32:56;;;;;;;0.50;0.30;;;12.70;99.90;;;;;;5085551;28;20513;-74
2023/01/13 10:35:56;;;;;;;0.13;0.13;;;11.80;99.90;;;;;;5095276;28;20430;-73
2023/01/13 10:38:39;;;;;;;0.20;0.20;;;11.40;99.90;;;;;;5085495;28;20523;-74
2023/01/13 10:41:15;;;;;;;1.25;0.50;;;11.20;99.90;;;;;;5080624;28;20503;-74
2023/01/13 10:43:44;;;;;;;0.20;0.20;;;10.90;99.90;;;;;;5084161;28;20468;-74
2023/01/13 10:46:15;;;;;;;0.20;0.20;;;10.80;99.90;;;;;;5077801;28;20427;-73
2023/01/13 10:48:56;;;;;;;2.80;0.22;;;10.80;99.90;;;;;;5072725;28;20439;-72
2023/01/13 10:51:38;;;;;;;0.20;0.20;;;10.80;99.90;;;;;;5085569;28;20430;-73
2023/01/13 10:54:13;;;;;;;3.40;0.30;;;10.80;99.90;;;;;;5079486;28;20466;-74
2023/01/13 10:56:43;;;;;;;0.20;0.20;;;10.70;99.90;;;;;;5081209;28;20432;-72
2023/01/13 10:59:25;;;;;;;0.82;0.52;;;10.40;99.90;;;;;;5086695;28;20428;-74
2023/01/13 11:02:01;;;;;;;0.20;0.20;;;10.00;99.90;;;;;;5075676;28;20426;-74
2023/01/13 11:04:52;;;;;;;0.30;0.30;;;9.30;99.90;;;;;;5073748;28;20733;-73
2023/01/13 11:07:44;;;;;;;1.00;0.60;;;8.60;99.90;;;;;;5085292;28;20923;-73
2023/01/13 11:10:20;;;;;;;1.20;0.45;;;8.10;99.90;;;;;;5084013;28;20426;-74
2023/01/13 11:13:16;;;;;;;0.60;0.60;;;7.90;99.90;;;;;;5077877;28;20427;-74
2023/01/13 11:16:06;;;;;;;0.30;0.30;;;7.90;99.90;;;;;;5074140;28;20477;-74
2023/01/13 11:19:00;;;;;;;0.25;0.25;;;8.00;99.90;;;;;;5084081;28;20487;-74
2023/01/13 11:21:34;;;;;;;0.30;0.30;;;8.20;99.90;;;;;;5086300;28;20885;-73
2023/01/13 11:24:15;;;;;;;0.40;0.40;;;9.00;99.90;;;;;;5056150;28;20948;-73
2023/01/13 11:27:03;;;;;;;0.60;0.60;;;9.60;99.90;;;;;;5082789;28;20931;-73
2023/01/13 11:29:57;;;;;;;1.30;0.80;;;10.00;99.90;;;;;;5078546;28;20552;-73
2023/01/13 11:32:25;;;;;;;0.20;0.20;;;10.50;99.90;;;;;;5078399;28;20442;-73
2023/01/13 11:35:13;;;;;;;0.40;0.40;;;11.10;99.90;;;;;;5087660;28;20431;-74
2023/01/13 11:37:46;;;;;;;0.30;0.30;;;11.30;99.90;;;;;;5080115;28;20421;-72
2023/01/13 11:40:22;;;;;;;0.25;0.25;;;11.10;99.90;;;;;;5080560;28;20940;-72
2023/01/13 11:43:11;;;;;;;0.20;0.20;;;10.80;99.90;;;;;;5081794;28;20888;-73
2023/01/13 11:45:44;;;;;;;0.30;0.30;;;10.60;99.90;;;;;;5081929;28;20437;-73
2023/01/13 11:48:21;;;;;;;3.10;0.50;;;10.90;99.90;;;;;;5083368;28;20515;-72
2023/01/13 11:51:09;;;;;;;0.20;0.20;;;11.40;99.90;;;;;;5090378;28;20443;-73
2023/01/13 11:53:53;;;;;;;0.30;0.30;;;11.70;99.90;;;;;;5071272;28;20635;-72
2023/01/13 11:56:39;;;;;;;0.60;0.60;;;12.20;99.90;;;;;;5082675;28;20528;-73
2023/01/13 11:59:30;;;;;;;0.30;0.30;;;12.20;99.90;;;;;;5074692;28;20431;-73
2023/01/13 12:02:22;;;;;;;0.52;0.52;;;12.70;99.90;;;;;;5089381;28;20511;-73
2023/01/13 12:04:56;;;;;;;1.60;0.40;;;13.00;99.90;;;;;;5078092;28;20431;-73
2023/01/13 12:08:01;;;;;;;0.20;0.20;;;13.10;99.90;;;;;;5067818;28;20522;-72
2023/01/13 12:10:57;;;;;;;2.60;0.40;;;12.70;99.90;;;;;;5088339;28;20425;-72
2023/01/13 12:13:38;;;;;;;1.00;0.40;;;12.00;99.90;;;;;;5087366;28;20936;-72
2023/01/13 12:16:24;;;;;;;1.10;0.68;;;12.00;99.90;;;;;;5081923;28;20426;-71
2023/01/13 12:19:18;;;;;;;1.10;0.50;;;12.30;99.90;;;;;;5076590;28;20529;-74
2023/01/13 12:22:02;;;;;;;1.33;0.22;;;12.80;99.90;;;;;;5079217;28;20492;-73
2023/01/13 12:24:39;;;;;;;0.20;0.20;;;13.20;99.90;;;;;;5070250;28;20439;-72
2023/01/13 12:27:32;;;;;;;0.28;0.28;;;13.60;99.90;;;;;;5088152;28;20433;-72
2023/01/13 12:30:03;;;;;;;0.20;0.20;;;13.90;99.90;;;;;;5069504;28;20835;-72
2023/01/13 12:32:36;;;;;;;0.30;0.30;;;13.40;99.90;;;;;;5082082;28;20522;-73
2023/01/13 12:35:22;;;;;;;0.40;0.40;;;13.30;99.90;;;;;;5077298;28;20458;-73
2023/01/13 12:37:55;;;;;;;0.60;0.50;;;13.30;99.90;;;;;;5083605;28;20420;-72
2023/01/13 12:40:32;;;;;;;0.68;0.43;;;13.50;99.90;;;;;;5079491;28;20426;-72
2023/01/13 12:45:48;;;;;;;0.40;0.40;;;13.10;99.90;;;;;;5082203;28;20443;-73
2023/01/13 12:48:48;;;;;;;0.55;0.45;;;13.00;99.90;;;;;;5074701;28;20425;-73
2023/01/13 12:51:31;;;;;;;0.40;0.20;;;12.90;99.90;;;;;;5053687;28;20509;-73
2023/01/13 12:54:00;;;;;;;0.95;0.43;;;13.00;99.90;;;;;;5065850;28;20545;-73
2023/01/13 12:56:44;;;;;;;1.63;0.40;;;13.60;99.90;;;;;;5088955;28;20458;-73
2023/01/13 12:59:20;;;;;;;2.20;0.50;;;14.20;99.90;;;;;;5078090;28;20426;-73
2023/01/13 13:02:08;;;;;;;0.25;0.25;;;14.60;99.90;;;;;;5073611;28;20423;-73
2023/01/13 13:04:53;;;;;;;1.60;0.40;;;14.90;99.90;;;;;;5059877;28;20952;-73
2023/01/13 13:07:34;;;;;;;3.65;0.25;;;15.40;99.90;;;;;;5084625;28;20909;-72
2023/01/13 13:10:23;;;;;;;0.38;0.22;;;14.80;99.90;;;;;;5086798;28;20416;-73
2023/01/13 13:15:38;;;;;;;0.10;0.10;;;14.50;99.90;;;;;;5078879;28;20438;-73
2023/01/13 13:18:20;;;;;;;0.10;0.10;;;14.00;99.90;;;;;;5095646;28;20429;-73
2023/01/13 13:20:58;;;;;;;1.70;0.73;;;13.70;99.90;;;;;;5086279;28;20499;-72
2023/01/13 13:23:43;;;;;;;3.30;0.52;;;13.20;99.90;;;;;;5081087;28;20434;-72
2023/01/13 13:26:24;;;;;;;1.10;0.40;;;12.60;99.90;;;;;;5080856;28;20426;-73
2023/01/13 13:29:28;;;;;;;1.25;0.40;;;12.00;99.90;;;;;;5077078;28;20465;-72
2023/01/13 13:32:39;;;;;;;2.70;0.50;;;11.40;99.90;;;;;;5077543;28;20426;-72
2023/01/13 13:35:32;;;;;;;0.20;0.20;;;11.20;99.90;;;;;;5054706;28;20459;-72
2023/01/13 13:47:16;;;;;;;0.50;0.30;;;10.40;99.90;;;;;;5079156;28;20439;-71
2023/01/13 13:49:48;;;;;;;0.20;0.20;;;10.30;99.90;;;;;;5076343;28;20776;-72
2023/01/13 13:52:25;;;;;;;0.40;0.40;;;10.00;99.90;;;;;;5083958;28;20429;-72
2023/01/13 13:54:57;;;;;;;0.40;0.40;;;9.70;99.90;;;;;;5088905;28;20438;-72
2023/01/13 13:57:51;;;;;;;2.70;0.70;;;9.70;99.90;;;;;;5083410;28;20422;-72
2023/01/13 14:00:31;;;;;;;0.10;0.10;;;9.90;99.90;;;;;;5072653;28;20528;-71
2023/01/13 14:03:17;;;;;;;0.20;0.20;;;10.00;99.90;;;;;;5077355;28;20968;-71
2023/01/13 14:06:05;;;;;;;0.30;0.30;;;10.20;99.90;;;;;;5082870;28;20436;-71
2023/01/13 14:08:38;;;;;;;0.20;0.20;;;10.10;99.90;;;;;;5076637;28;20447;-72
2023/01/13 14:11:31;;;;;;;4.15;0.30;;;9.90;99.90;;;;;;5073781;28;20574;-71
2023/01/13 14:14:02;;;;;;;0.20;0.20;;;9.60;99.90;;;;;;5057289;28;20528;-73
2023/01/13 14:16:31;;;;;;;0.52;0.43;;;9.50;99.90;;;;;;5093894;28;20424;-71
2023/01/13 14:18:58;;;;;;;3.40;0.40;;;8.90;99.90;;;;;;5086553;28;20434;-76
2023/01/13 14:21:28;;;;;;;0.20;0.20;;;8.10;99.90;;;;;;5080563;28;20433;-72
2023/01/13 14:24:09;;;;;;;0.27;0.27;;;7.60;99.90;;;;;;5102221;28;20420;-71